createdAt,value
2023-03-30T00:05:36.725Z,9.05
2023-03-30T00:15:42.269Z,8.75
2023-03-30T00:25:46.276Z,14.88
2023-03-30T00:35:54.822Z,10.45
2023-03-30T00:45:58.564Z,13.82
2023-03-30T00:56:05.691Z,13.05
2023-03-30T01:06:09.789Z,15.00
2023-03-30T01:16:23.995Z,13.68
2023-03-30T01:26:44.121Z,12.85
2023-03-30T01:37:41.570Z,12.63
2023-03-30T01:47:53.061Z,10.82
2023-03-30T01:58:01.559Z,6.93
2023-03-30T02:08:09.748Z,10.73
2023-03-30T02:18:13.338Z,13.18
2023-03-30T02:28:18.963Z,13.52
2023-03-30T02:38:38.530Z,9.38
2023-03-30T02:48:52.497Z,13.55
2023-03-30T02:59:04.046Z,10.90
2023-03-30T03:09:08.760Z,9.43
2023-03-30T03:19:12.994Z,13.80
2023-03-30T03:29:18.337Z,15.02
2023-03-30T03:39:22.294Z,12.07
2023-03-30T03:49:29.531Z,11.90
2023-03-30T03:59:33.107Z,10.27
2023-03-30T04:09:37.771Z,12.27
2023-03-30T04:19:43.983Z,11.55
2023-03-30T04:29:57.868Z,12.90
2023-03-30T04:40:11.456Z,11.35
2023-03-30T04:50:43.756Z,13.68
2023-03-30T05:01:01.751Z,19.52
2023-03-30T05:11:24.866Z,11.10
2023-03-30T05:21:36.170Z,12.35
2023-03-30T05:32:03.553Z,14.52
2023-03-30T05:42:24.949Z,12.55
2023-03-30T05:52:38.411Z,10.55
2023-03-30T06:02:58.493Z,13.00
2023-03-30T06:13:05.093Z,12.02
2023-03-30T06:23:28.719Z,16.05
2023-03-30T06:33:40.369Z,14.40
2023-03-30T06:43:46.507Z,15.93
2023-03-30T06:53:53.378Z,12.95
2023-03-30T07:03:57.855Z,13.48
2023-03-30T07:14:15.549Z,12.75
2023-03-30T07:24:20.185Z,12.05
2023-03-30T07:34:25.474Z,11.10
2023-03-30T07:44:32.839Z,10.77
2023-03-30T07:54:44.036Z,8.40
2023-03-30T08:04:55.581Z,12.80
2023-03-30T08:15:12.151Z,8.68
2023-03-30T08:25:15.623Z,7.03
2023-03-30T08:35:21.737Z,5.78
2023-03-30T08:45:35.828Z,7.35
2023-03-30T08:55:43.919Z,5.20
2023-03-30T09:05:53.853Z,7.65
2023-03-30T09:16:06.064Z,5.80
2023-03-30T09:26:22.051Z,10.48
2023-03-30T09:36:33.387Z,7.82
2023-03-30T09:46:37.021Z,5.38
2023-03-30T09:56:46.894Z,7.45
2023-03-30T10:06:51.454Z,7.15
2023-03-30T10:16:56.981Z,7.50
2023-03-30T10:27:10.774Z,9.73
2023-03-30T10:37:18.012Z,7.88
2023-03-30T10:47:33.976Z,6.75
2023-03-30T10:57:44.009Z,8.52
2023-03-30T11:07:51.199Z,6.80
2023-03-30T11:18:03.347Z,7.60
2023-03-30T11:28:16.843Z,9.52
2023-03-30T11:38:25.838Z,6.07
2023-03-30T11:49:08.633Z,6.30
2023-03-30T11:59:22.921Z,7.75
2023-03-30T12:09:29.042Z,3.92
2023-03-30T12:19:53.536Z,8.73
2023-03-30T12:30:14.321Z,8.55
2023-03-30T12:40:22.733Z,7.78
2023-03-30T12:50:42.319Z,4.95
2023-03-30T13:01:05.619Z,4.45
2023-03-30T13:11:13.427Z,6.05
2023-03-30T13:21:24.171Z,5.90
2023-03-30T13:31:43.548Z,5.57
2023-03-30T13:41:59.321Z,6.40
2023-03-30T13:52:05.286Z,5.82
2023-03-30T14:02:15.823Z,7.05
2023-03-30T14:12:19.413Z,5.95
2023-03-30T14:22:27.809Z,5.15
2023-03-30T14:32:31.460Z,6.60
2023-03-30T14:42:36.171Z,6.18
2023-03-30T14:52:41.805Z,7.20
2023-03-30T15:02:47.589Z,8.00
2023-03-30T15:12:53.154Z,4.85
2023-03-30T15:22:58.428Z,4.97
2023-03-30T15:33:02.380Z,6.43
2023-03-30T15:43:33.678Z,6.07
2023-03-30T15:53:48.661Z,5.40
2023-03-30T16:03:56.334Z,6.85
2023-03-30T16:14:00.694Z,5.93
2023-03-30T16:24:05.992Z,4.80
2023-03-30T16:34:09.227Z,7.30
2023-03-30T16:44:13.993Z,5.10
2023-03-30T16:54:30.368Z,7.55
2023-03-30T17:04:36.385Z,5.72
2023-03-30T17:14:42.935Z,7.30
2023-03-30T17:24:47.731Z,8.05
2023-03-30T17:34:50.973Z,11.43
2023-03-30T17:44:55.916Z,7.45
2023-03-30T17:54:59.202Z,6.30
2023-03-30T18:05:03.791Z,7.10
2023-03-30T18:15:07.778Z,8.13
2023-03-30T18:25:22.101Z,6.03
2023-03-30T18:35:30.870Z,5.55
2023-03-30T18:45:38.084Z,6.93
2023-03-30T18:55:42.896Z,4.95
2023-03-30T19:05:48.038Z,11.07
2023-03-30T19:15:52.428Z,7.72
2023-03-30T19:25:57.367Z,6.43
2023-03-30T19:36:00.682Z,6.47
2023-03-30T19:46:06.010Z,8.55
2023-03-30T19:56:11.441Z,7.32
2023-03-30T20:06:16.077Z,7.13
2023-03-30T20:16:21.262Z,7.53
2023-03-30T20:26:27.601Z,8.95
2023-03-30T20:36:31.007Z,8.32
2023-03-30T20:46:37.945Z,6.90
2023-03-30T20:56:41.420Z,7.85
2023-03-30T21:06:46.157Z,9.65
2023-03-30T21:16:49.435Z,8.27
2023-03-30T21:26:54.057Z,9.25
2023-03-30T21:36:57.591Z,5.72
2023-03-30T21:47:02.321Z,9.32
2023-03-30T21:57:05.744Z,8.85
2023-03-30T22:07:10.383Z,7.63
2023-03-30T22:17:13.576Z,8.93
2023-03-30T22:27:18.102Z,6.70
2023-03-30T22:37:21.325Z,6.93
2023-03-30T22:47:26.155Z,8.10
2023-03-30T22:57:29.444Z,9.85
2023-03-30T23:07:36.885Z,7.25
2023-03-30T23:17:40.387Z,4.25
2023-03-30T23:27:45.049Z,7.93
2023-03-30T23:37:49.948Z,4.57
2023-03-30T23:47:54.500Z,5.70
2023-03-30T23:57:57.749Z,3.95
